Time;durP1;ratioP1;P1;durP2;ratioP2;P2;SDS_P1;SDS_P2;PMS_P1;PMS_P2;Temp;Humidity;BMP_temperature;BMP_pressure;BME280_temperature;BME280_humidity;BME280_pressure;Samples;Min_cycle;Max_cycle;Signal;HPM_P1;HPM_P2
2021/12/27 00:03:00;;;;;;;17.97;12.10;;;1.60;87.50;;;;;;6368185;27;20183;-62
2021/12/27 00:06:01;;;;;;;19.47;11.90;;;1.60;87.50;;;;;;6315208;28;20223;-61
2021/12/27 00:09:03;;;;;;;21.23;12.17;;;1.70;87.70;;;;;;6333668;28;20183;-61
2021/12/27 00:12:04;;;;;;;23.27;13.63;;;1.80;87.40;;;;;;6333558;28;20236;-62
2021/12/27 00:15:05;;;;;;;21.70;14.10;;;1.80;87.50;;;;;;6333389;28;20330;-62
2021/12/27 00:18:06;;;;;;;22.37;13.90;;;1.70;87.00;;;;;;6351146;28;20190;-62
2021/12/27 00:21:07;;;;;;;21.07;13.37;;;1.80;87.70;;;;;;6331754;28;20192;-62
2021/12/27 00:24:08;;;;;;;19.33;11.23;;;1.80;86.80;;;;;;6349145;28;20243;-62
2021/12/27 00:27:09;;;;;;;20.83;13.07;;;1.80;87.60;;;;;;6329743;28;20188;-62
2021/12/27 00:30:11;;;;;;;21.80;13.67;;;1.70;88.00;;;;;;6348278;27;20328;-62
2021/12/27 00:33:12;;;;;;;19.30;12.27;;;1.80;86.90;;;;;;6349025;27;20223;-61
2021/12/27 00:36:13;;;;;;;20.27;13.10;;;1.60;87.70;;;;;;6332716;28;20219;-61
2021/12/27 00:39:13;;;;;;;22.53;13.40;;;1.60;88.20;;;;;;6333212;28;20191;-62
2021/12/27 00:42:15;;;;;;;24.13;14.03;;;1.70;87.70;;;;;;6332167;28;20329;-62
2021/12/27 00:45:16;;;;;;;19.40;13.07;;;1.60;87.70;;;;;;6327131;28;20488;-61
2021/12/27 00:48:17;;;;;;;23.00;12.53;;;1.60;88.10;;;;;;6322388;28;20188;-62
2021/12/27 00:51:18;;;;;;;21.53;12.20;;;1.70;88.30;;;;;;6322272;28;20286;-61
2021/12/27 00:54:19;;;;;;;22.33;12.67;;;1.80;87.70;;;;;;6289496;28;20486;-61
2021/12/27 00:57:20;;;;;;;25.73;15.47;;;1.70;87.60;;;;;;6325543;28;20220;-61
2021/12/27 01:00:25;;;;;;;26.53;15.37;;;1.60;88.30;;;;;;6332272;28;20185;-62
2021/12/27 01:03:26;;;;;;;24.07;14.80;;;1.50;88.70;;;;;;6350157;28;20194;-62
2021/12/27 01:06:27;;;;;;;24.57;14.83;;;1.40;88.80;;;;;;6331706;28;20202;-62
2021/12/27 01:16:10;;;;;;;21.27;12.53;;;1.50;89.00;;;;;;6347954;27;20242;-61
2021/12/27 01:19:11;;;;;;;28.53;15.63;;;1.60;88.70;;;;;;6317609;28;20214;-61
2021/12/27 01:22:12;;;;;;;26.57;16.60;;;1.50;89.50;;;;;;6313844;28;20195;-62
2021/12/27 01:25:13;;;;;;;24.73;15.73;;;1.50;89.10;;;;;;6331116;28;20248;-61
2021/12/27 01:28:16;;;;;;;21.57;13.67;;;1.50;89.70;;;;;;6348522;28;20256;-61
2021/12/27 01:31:17;;;;;;;25.03;13.40;;;1.50;89.00;;;;;;6366381;27;20183;-61
2021/12/27 01:34:18;;;;;;;23.60;13.33;;;1.40;88.60;;;;;;6332355;28;20190;-61
2021/12/27 01:37:19;;;;;;;18.77;12.03;;;1.40;88.80;;;;;;6332111;28;20272;-61
2021/12/27 01:40:23;;;;;;;23.73;13.40;;;1.30;89.00;;;;;;6332769;28;20626;-61
2021/12/27 01:43:30;;;;;;;27.73;15.23;;;1.30;89.20;;;;;;6349050;28;20194;-61
2021/12/27 01:46:31;;;;;;;31.17;16.40;;;1.30;89.10;;;;;;6349344;28;20238;-61
2021/12/27 01:49:32;;;;;;;23.80;15.17;;;1.30;89.40;;;;;;6332165;28;20192;-61
2021/12/27 01:52:32;;;;;;;27.60;15.93;;;1.30;89.70;;;;;;6323045;28;20236;-61
2021/12/27 01:55:34;;;;;;;32.77;17.37;;;1.30;89.60;;;;;;6342338;28;20220;-61
2021/12/27 01:58:35;;;;;;;27.77;15.17;;;1.30;89.60;;;;;;6330106;28;20228;-61
2021/12/27 02:01:36;;;;;;;32.73;17.53;;;1.40;89.70;;;;;;6328100;28;20283;-61
2021/12/27 02:04:37;;;;;;;31.57;17.57;;;1.40;89.70;;;;;;6347099;28;20187;-61
2021/12/27 02:07:38;;;;;;;27.20;16.13;;;1.40;89.80;;;;;;6346271;28;20196;-61
2021/12/27 02:10:39;;;;;;;24.27;13.83;;;1.40;90.30;;;;;;6344890;28;20253;-61
2021/12/27 02:13:43;;;;;;;21.40;13.90;;;1.40;89.90;;;;;;6306070;28;20286;-61
2021/12/27 02:16:44;;;;;;;18.67;12.40;;;1.40;89.50;;;;;;6309671;28;20211;-61
2021/12/27 02:19:51;;;;;;;17.57;12.43;;;1.30;89.50;;;;;;6313153;28;20190;-61
2021/12/27 02:22:55;;;;;;;22.43;12.60;;;1.30;90.10;;;;;;6363774;27;20195;-61
2021/12/27 02:25:56;;;;;;;20.90;12.63;;;1.30;90.00;;;;;;6329486;28;20227;-61
2021/12/27 02:28:57;;;;;;;18.80;12.03;;;1.30;90.20;;;;;;6315856;28;20198;-61
2021/12/27 02:31:58;;;;;;;19.63;10.90;;;1.30;90.10;;;;;;6322242;28;20202;-61
2021/12/27 02:34:59;;;;;;;17.40;11.40;;;1.30;89.80;;;;;;6305019;28;20302;-61
2021/12/27 02:38:01;;;;;;;17.03;10.87;;;1.40;89.90;;;;;;6314074;28;20246;-61
2021/12/27 02:41:02;;;;;;;14.10;10.07;;;1.40;89.80;;;;;;6311855;28;20241;-61
2021/12/27 02:44:04;;;;;;;13.27;8.47;;;1.50;89.80;;;;;;6347194;28;20191;-61
2021/12/27 02:47:04;;;;;;;12.17;8.57;;;1.50;89.20;;;;;;6328721;28;20196;-61
2021/12/27 02:50:07;;;;;;;10.37;8.13;;;1.50;89.20;;;;;;6362834;27;20312;-61
2021/12/27 02:53:09;;;;;;;13.30;9.63;;;1.60;88.80;;;;;;6362985;27;20218;-61
2021/12/27 02:56:10;;;;;;;13.53;9.53;;;1.60;89.10;;;;;;6379545;27;20261;-61
2021/12/27 02:59:11;;;;;;;12.17;8.40;;;1.60;89.30;;;;;;6328720;28;20274;-61
2021/12/27 03:02:11;;;;;;;13.47;9.50;;;1.60;89.30;;;;;;6363053;27;20254;-61
2021/12/27 03:05:16;;;;;;;15.67;10.93;;;1.60;88.80;;;;;;6340851;27;20227;-61
2021/12/27 03:08:20;;;;;;;19.37;11.20;;;1.50;89.20;;;;;;6321257;28;20196;-61
2021/12/27 03:11:21;;;;;;;14.97;10.57;;;1.50;89.20;;;;;;6308577;28;20321;-61
2021/12/27 03:14:23;;;;;;;15.93;11.60;;;1.40;89.10;;;;;;6341016;28;20202;-61
2021/12/27 03:17:24;;;;;;;15.67;11.03;;;1.30;89.30;;;;;;6288684;28;20216;-61
2021/12/27 03:20:26;;;;;;;19.37;12.17;;;1.40;89.70;;;;;;6330121;28;20244;-61
2021/12/27 03:23:27;;;;;;;18.57;11.40;;;1.50;89.30;;;;;;6329034;28;20195;-61
2021/12/27 03:26:28;;;;;;;14.93;11.00;;;1.50;89.00;;;;;;6311850;28;20200;-61
2021/12/27 03:29:29;;;;;;;19.27;12.03;;;1.50;88.90;;;;;;6310634;28;20289;-61
2021/12/27 03:32:31;;;;;;;18.77;12.00;;;1.60;88.80;;;;;;6329042;28;20195;-61
2021/12/27 03:35:38;;;;;;;19.27;13.17;;;1.50;89.20;;;;;;6320682;28;20227;-61
2021/12/27 03:38:48;;;;;;;22.40;14.07;;;1.50;88.50;;;;;;6320093;28;20260;-61
2021/12/27 03:41:48;;;;;;;18.30;11.10;;;1.50;88.40;;;;;;6345035;27;20196;-61
2021/12/27 03:44:49;;;;;;;24.00;13.90;;;1.50;89.10;;;;;;6329070;28;20201;-61
2021/12/27 03:47:51;;;;;;;20.20;12.77;;;1.40;88.70;;;;;;6311404;28;20188;-61
2021/12/27 03:50:52;;;;;;;22.10;12.83;;;1.50;89.30;;;;;;6327259;28;20196;-61
2021/12/27 03:53:53;;;;;;;21.57;12.27;;;1.50;88.90;;;;;;6327882;28;20329;-61
2021/12/27 03:56:54;;;;;;;20.67;13.07;;;1.50;88.80;;;;;;6310905;28;20220;-61
2021/12/27 04:03:16;;;;;;;21.67;12.67;;;1.50;88.80;;;;;;6321415;28;20649;-61
2021/12/27 04:06:19;;;;;;;21.90;13.70;;;1.40;89.50;;;;;;6355038;28;20299;-61
2021/12/27 04:09:19;;;;;;;22.03;13.50;;;1.50;89.30;;;;;;6317370;28;20240;-61
2021/12/27 04:12:20;;;;;;;23.53;13.83;;;1.50;89.10;;;;;;6327369;28;20270;-61
2021/12/27 04:15:22;;;;;;;20.07;13.03;;;1.50;88.80;;;;;;6320975;28;20217;-61
2021/12/27 04:18:23;;;;;;;22.13;13.40;;;1.60;89.00;;;;;;6327379;28;20233;-61
2021/12/27 04:21:24;;;;;;;22.03;13.07;;;1.60;88.60;;;;;;6327907;28;20187;-61
2021/12/27 04:24:25;;;;;;;18.97;11.27;;;1.50;89.20;;;;;;6328839;28;20229;-61
2021/12/27 04:27:26;;;;;;;20.13;12.60;;;1.50;89.40;;;;;;6349769;28;20183;-61
2021/12/27 04:30:27;;;;;;;22.60;14.27;;;1.50;88.70;;;;;;6332101;28;20232;-61
2021/12/27 04:33:28;;;;;;;20.60;12.73;;;1.40;89.30;;;;;;6342540;28;20263;-61
2021/12/27 04:36:28;;;;;;;17.03;10.77;;;1.40;89.30;;;;;;6328044;27;20314;-61
2021/12/27 04:39:29;;;;;;;18.80;12.50;;;1.50;89.10;;;;;;6328125;28;20201;-61
2021/12/27 04:42:31;;;;;;;17.07;12.23;;;1.50;88.90;;;;;;6306749;28;20192;-61
2021/12/27 04:45:32;;;;;;;19.57;13.07;;;1.60;88.60;;;;;;6310482;28;20198;-61
2021/12/27 04:48:33;;;;;;;17.83;11.83;;;1.50;88.40;;;;;;6330932;28;20294;-61
2021/12/27 04:51:34;;;;;;;18.77;11.60;;;1.50;88.70;;;;;;6314980;28;20199;-61
2021/12/27 04:54:35;;;;;;;18.20;11.50;;;1.50;88.40;;;;;;6333342;28;20187;-61
2021/12/27 04:57:35;;;;;;;17.37;11.57;;;1.50;88.50;;;;;;6322984;28;20297;-61
2021/12/27 05:00:37;;;;;;;18.43;12.90;;;1.50;87.80;;;;;;6355576;27;20282;-61
2021/12/27 05:03:38;;;;;;;17.53;11.67;;;1.40;88.70;;;;;;6345386;28;20193;-61
2021/12/27 05:06:39;;;;;;;20.43;13.23;;;1.40;88.30;;;;;;6309260;28;20203;-61
2021/12/27 05:09:40;;;;;;;20.83;12.27;;;1.30;89.20;;;;;;6307775;28;20198;-62
2021/12/27 05:12:41;;;;;;;20.90;12.93;;;1.30;89.30;;;;;;6290613;28;20193;-61
2021/12/27 05:15:42;;;;;;;23.00;13.47;;;1.40;88.80;;;;;;6304621;28;20212;-61
2021/12/27 05:18:42;;;;;;;20.60;13.17;;;1.40;89.30;;;;;;6331126;28;20244;-61
2021/12/27 05:21:43;;;;;;;21.60;14.10;;;1.30;89.40;;;;;;6308565;28;20196;-61
2021/12/27 05:24:44;;;;;;;26.03;13.90;;;1.30;89.60;;;;;;6326956;28;20195;-62
2021/12/27 05:27:45;;;;;;;21.50;13.07;;;1.30;89.40;;;;;;6314896;28;20218;-61
2021/12/27 05:30:48;;;;;;;23.13;12.63;;;1.30;89.10;;;;;;6347253;28;20196;-61
2021/12/27 05:33:48;;;;;;;18.60;12.40;;;1.30;89.10;;;;;;6332942;28;20191;-61
2021/12/27 05:36:49;;;;;;;21.50;13.27;;;1.40;89.10;;;;;;6349140;28;20219;-61
2021/12/27 05:39:50;;;;;;;23.90;13.37;;;1.30;89.30;;;;;;6324645;28;20237;-61
2021/12/27 05:42:53;;;;;;;24.47;13.77;;;1.30;89.60;;;;;;6325938;28;20230;-61
2021/12/27 05:45:54;;;;;;;22.60;13.37;;;1.40;89.80;;;;;;6313057;28;20690;-61
2021/12/27 05:48:54;;;;;;;22.63;13.43;;;1.40;89.60;;;;;;6331219;28;20195;-61
2021/12/27 05:51:55;;;;;;;24.37;14.33;;;1.40;89.00;;;;;;6330827;28;20192;-61
2021/12/27 05:54:56;;;;;;;19.70;12.17;;;1.40;89.10;;;;;;6347824;28;20198;-61
2021/12/27 05:57:57;;;;;;;25.23;14.63;;;1.40;89.40;;;;;;6331486;28;20185;-61
2021/12/27 06:00:57;;;;;;;27.13;15.37;;;1.40;89.40;;;;;;6324364;28;20299;-61
2021/12/27 06:03:59;;;;;;;22.50;12.90;;;1.30;89.60;;;;;;6306053;28;20184;-61
2021/12/27 06:07:00;;;;;;;25.17;13.10;;;1.40;89.60;;;;;;6311017;28;20196;-63
2021/12/27 06:10:01;;;;;;;23.37;12.50;;;1.40;89.80;;;;;;6323093;28;20231;-63
2021/12/27 06:13:02;;;;;;;25.30;13.63;;;1.40;89.30;;;;;;6339732;28;20196;-61
2021/12/27 06:16:03;;;;;;;28.03;14.87;;;1.50;89.30;;;;;;6314149;28;20699;-61
2021/12/27 06:19:04;;;;;;;31.93;15.00;;;1.40;88.70;;;;;;6331263;28;20187;-61
2021/12/27 06:22:05;;;;;;;26.10;14.50;;;1.40;89.30;;;;;;6318349;28;20303;-62
2021/12/27 06:25:06;;;;;;;27.70;14.07;;;1.40;88.50;;;;;;6320526;28;20195;-61
2021/12/27 06:28:07;;;;;;;25.17;13.03;;;1.40;88.90;;;;;;6339196;27;20208;-62
2021/12/27 06:31:08;;;;;;;25.53;12.97;;;1.50;88.70;;;;;;6321407;28;20241;-62
2021/12/27 06:34:09;;;;;;;26.17;13.13;;;1.50;88.40;;;;;;6322088;28;20194;-62
2021/12/27 06:37:09;;;;;;;30.87;14.07;;;1.40;89.00;;;;;;6338474;28;20229;-62
2021/12/27 06:40:11;;;;;;;24.77;12.37;;;1.40;88.30;;;;;;6322640;28;20226;-62
2021/12/27 06:43:12;;;;;;;27.07;13.40;;;1.40;89.00;;;;;;6337163;28;20206;-62
2021/12/27 06:46:13;;;;;;;22.57;11.87;;;1.30;89.10;;;;;;6325901;28;20191;-62
2021/12/27 06:49:14;;;;;;;27.43;14.30;;;1.30;89.30;;;;;;6330085;28;20199;-62
2021/12/27 06:52:15;;;;;;;23.93;13.87;;;1.40;89.20;;;;;;6325112;28;20199;-62
2021/12/27 06:55:16;;;;;;;21.03;11.63;;;1.40;89.20;;;;;;6345799;28;20215;-62
2021/12/27 06:58:16;;;;;;;23.37;13.40;;;1.50;88.70;;;;;;6345571;28;20199;-62
2021/12/27 07:01:17;;;;;;;24.67;12.93;;;1.50;88.40;;;;;;6330143;28;20202;-62
2021/12/27 07:04:18;;;;;;;25.90;14.43;;;1.50;88.40;;;;;;6347536;28;20186;-62
2021/12/27 07:07:19;;;;;;;22.20;12.87;;;1.60;88.40;;;;;;6328183;28;20195;-62
2021/12/27 07:10:22;;;;;;;29.00;13.70;;;1.50;88.40;;;;;;6329367;28;20232;-62
2021/12/27 07:13:22;;;;;;;25.73;14.27;;;1.40;89.00;;;;;;6346588;28;20202;-62
2021/12/27 07:16:25;;;;;;;27.40;13.63;;;1.40;88.80;;;;;;6347189;28;20227;-62
2021/12/27 07:19:27;;;;;;;23.97;13.80;;;1.60;88.90;;;;;;6345211;28;20213;-63
2021/12/27 07:22:28;;;;;;;27.70;13.17;;;1.50;88.30;;;;;;6327656;28;20192;-62
2021/12/27 07:25:29;;;;;;;25.20;13.00;;;1.50;88.10;;;;;;6302749;28;20207;-62
2021/12/27 07:28:30;;;;;;;26.00;13.83;;;1.60;88.30;;;;;;6338042;28;20195;-62
2021/12/27 07:31:31;;;;;;;31.13;15.97;;;1.60;88.10;;;;;;6329555;28;20228;-62
2021/12/27 07:34:32;;;;;;;22.33;13.93;;;1.50;88.90;;;;;;6312191;28;20205;-62
2021/12/27 07:37:33;;;;;;;32.33;15.40;;;1.50;88.50;;;;;;6303768;28;20310;-62
2021/12/27 07:40:34;;;;;;;26.77;13.73;;;1.50;88.50;;;;;;6338289;28;20234;-62
2021/12/27 07:43:34;;;;;;;28.47;14.90;;;1.40;89.00;;;;;;6355301;28;20211;-62
2021/12/27 07:46:38;;;;;;;21.70;11.33;;;1.50;88.70;;;;;;6328169;28;20212;-62
2021/12/27 07:49:39;;;;;;;26.97;12.90;;;1.60;88.80;;;;;;6321410;28;20216;-62
2021/12/27 07:52:40;;;;;;;22.07;12.60;;;1.60;88.60;;;;;;6341981;28;20199;-62
2021/12/27 07:55:42;;;;;;;22.03;12.13;;;1.60;88.10;;;;;;6345307;27;20255;-62
2021/12/27 07:58:43;;;;;;;23.70;12.63;;;1.60;88.10;;;;;;6311308;28;20198;-62
2021/12/27 08:01:43;;;;;;;23.33;13.20;;;1.70;88.10;;;;;;6332911;28;20199;-62
2021/12/27 08:04:44;;;;;;;23.00;13.63;;;1.80;87.90;;;;;;6333778;28;20226;-62
2021/12/27 08:07:45;;;;;;;28.90;13.83;;;1.60;88.20;;;;;;6325477;28;20192;-62
2021/12/27 08:10:46;;;;;;;23.27;13.13;;;1.60;88.50;;;;;;6347920;28;20236;-62
2021/12/27 08:13:48;;;;;;;29.10;14.43;;;1.70;88.30;;;;;;6326167;28;20230;-62
2021/12/27 08:16:49;;;;;;;28.13;12.33;;;1.60;88.70;;;;;;6349671;28;20338;-62
2021/12/27 08:19:50;;;;;;;23.10;12.77;;;1.60;88.60;;;;;;6342837;27;20214;-62
2021/12/27 08:22:51;;;;;;;24.50;13.37;;;1.80;88.60;;;;;;6325942;28;20185;-62
2021/12/27 08:25:51;;;;;;;25.63;13.43;;;1.70;88.10;;;;;;6324183;28;20266;-62
2021/12/27 08:28:54;;;;;;;21.50;12.37;;;1.70;88.10;;;;;;6310187;28;20206;-62
2021/12/27 08:31:54;;;;;;;20.03;11.80;;;1.80;87.60;;;;;;6309557;28;20197;-62
2021/12/27 08:34:55;;;;;;;22.93;12.47;;;1.70;87.80;;;;;;6308770;28;20237;-62
2021/12/27 08:37:56;;;;;;;22.60;12.90;;;1.60;88.10;;;;;;6342919;28;20222;-62
2021/12/27 08:40:57;;;;;;;25.03;13.17;;;1.60;88.10;;;;;;6342362;28;20175;-62
2021/12/27 08:44:01;;;;;;;26.23;12.90;;;1.60;87.50;;;;;;6342090;28;20195;-62
2021/12/27 08:47:02;;;;;;;24.00;11.77;;;1.60;87.90;;;;;;6343282;28;20290;-62
2021/12/27 08:50:05;;;;;;;22.87;12.20;;;1.40;88.50;;;;;;6332094;28;20218;-62
2021/12/27 08:53:06;;;;;;;26.23;12.63;;;1.50;88.80;;;;;;6315812;28;20302;-62
2021/12/27 08:56:07;;;;;;;28.47;13.50;;;1.40;88.10;;;;;;6332664;28;20225;-62
2021/12/27 08:59:08;;;;;;;22.57;12.70;;;1.40;88.80;;;;;;6349273;28;20233;-62
2021/12/27 09:02:08;;;;;;;24.53;14.03;;;1.60;88.60;;;;;;6332500;28;20194;-62
2021/12/27 09:05:09;;;;;;;24.03;11.87;;;1.60;87.80;;;;;;6329235;28;20228;-62
2021/12/27 09:08:10;;;;;;;27.43;12.37;;;1.60;88.90;;;;;;6348117;28;20184;-62
2021/12/27 09:11:11;;;;;;;31.07;14.00;;;1.80;88.60;;;;;;6321944;28;20244;-62
2021/12/27 09:14:13;;;;;;;27.43;12.97;;;1.60;88.00;;;;;;6341054;28;20184;-62
2021/12/27 09:17:14;;;;;;;27.73;14.10;;;1.80;87.90;;;;;;6324013;28;20227;-62
2021/12/27 09:20:16;;;;;;;24.13;11.80;;;1.80;87.40;;;;;;6340120;28;20180;-62
2021/12/27 09:23:16;;;;;;;26.73;14.43;;;1.80;87.20;;;;;;6339493;28;20236;-62
2021/12/27 09:26:18;;;;;;;25.80;13.47;;;1.80;87.50;;;;;;6323446;28;20195;-62
2021/12/27 09:29:18;;;;;;;20.40;11.47;;;1.80;87.80;;;;;;6355458;27;20474;-62
2021/12/27 09:32:19;;;;;;;28.30;13.80;;;1.80;88.30;;;;;;6324315;28;20253;-62
2021/12/27 09:35:20;;;;;;;27.07;15.33;;;1.80;89.70;;;;;;6289754;28;20605;-62
2021/12/27 09:38:21;;;;;;;27.83;13.80;;;1.80;88.60;;;;;;6289218;28;20198;-62
2021/12/27 09:41:24;;;;;;;24.07;11.63;;;1.80;88.20;;;;;;6339357;28;20187;-62
2021/12/27 09:44:24;;;;;;;21.63;12.13;;;1.90;87.80;;;;;;6289261;28;20189;-62
2021/12/27 09:47:26;;;;;;;23.13;13.53;;;2.00;87.60;;;;;;6299262;28;20222;-62
2021/12/27 09:50:33;;;;;;;24.90;12.57;;;2.00;87.90;;;;;;6314207;28;20263;-62
2021/12/27 09:53:34;;;;;;;23.80;12.97;;;1.90;87.70;;;;;;6344515;28;20237;-62
2021/12/27 09:56:35;;;;;;;23.87;12.47;;;2.10;87.10;;;;;;6348287;27;20222;-62
2021/12/27 09:59:35;;;;;;;21.03;12.57;;;1.90;87.10;;;;;;6331923;28;20204;-62
2021/12/27 10:02:38;;;;;;;23.13;12.47;;;1.90;87.20;;;;;;6314329;28;20199;-62
2021/12/27 10:05:39;;;;;;;25.03;12.80;;;2.00;88.10;;;;;;6330987;28;20286;-62
2021/12/27 10:08:47;;;;;;;23.27;13.57;;;2.10;87.90;;;;;;6309810;28;20206;-62
2021/12/27 10:11:48;;;;;;;24.90;13.23;;;2.10;87.40;;;;;;6339440;28;20240;-62
2021/12/27 10:15:00;;;;;;;26.30;13.50;;;2.20;87.90;;;;;;6322217;28;20627;-62
2021/12/27 10:18:12;;;;;;;21.77;11.87;;;2.30;86.90;;;;;;6339048;28;20189;-62
2021/12/27 10:21:14;;;;;;;26.30;12.93;;;2.20;87.00;;;;;;6330835;28;20207;-62
2021/12/27 10:24:21;;;;;;;24.57;12.53;;;2.10;87.10;;;;;;6346360;28;20187;-62
2021/12/27 10:27:24;;;;;;;20.00;11.67;;;2.20;86.50;;;;;;6362449;27;20210;-62
2021/12/27 10:30:27;;;;;;;25.37;13.87;;;2.10;86.80;;;;;;6312857;28;20202;-62
2021/12/27 10:33:33;;;;;;;20.00;11.20;;;2.20;87.20;;;;;;6329813;28;20195;-62
2021/12/27 10:36:33;;;;;;;21.03;12.10;;;2.20;86.70;;;;;;6329694;28;20207;-62
2021/12/27 10:40:07;;;;;;;24.00;12.83;;;2.30;86.30;;;;;;6345273;28;20197;-62
2021/12/27 10:43:08;;;;;;;20.40;11.47;;;2.30;85.70;;;;;;6329277;28;20593;-62
2021/12/27 10:46:13;;;;;;;18.47;11.00;;;2.30;85.80;;;;;;6329557;28;20210;-62
2021/12/27 10:49:14;;;;;;;23.53;12.97;;;2.30;86.50;;;;;;6347668;28;20192;-62
2021/12/27 10:52:14;;;;;;;20.43;11.33;;;2.30;86.50;;;;;;6309729;28;20291;-62
2021/12/27 10:55:19;;;;;;;18.23;11.30;;;2.40;85.60;;;;;;6339855;28;20205;-62
2021/12/27 10:58:25;;;;;;;22.83;13.10;;;2.40;86.20;;;;;;6347268;28;20191;-62
2021/12/27 11:01:28;;;;;;;21.03;11.87;;;2.50;85.30;;;;;;6334297;28;20244;-62
2021/12/27 11:04:29;;;;;;;21.83;11.63;;;2.50;85.00;;;;;;6337638;28;20248;-62
2021/12/27 11:07:30;;;;;;;22.53;12.93;;;2.30;86.00;;;;;;6319971;28;20196;-62
2021/12/27 11:10:36;;;;;;;23.97;12.67;;;2.40;85.90;;;;;;6321686;28;20240;-62
2021/12/27 11:13:37;;;;;;;19.10;11.47;;;2.30;85.20;;;;;;6363385;27;20207;-62
2021/12/27 11:16:38;;;;;;;18.17;11.30;;;2.30;86.00;;;;;;6329965;28;20215;-62
2021/12/27 11:19:39;;;;;;;20.33;11.17;;;2.40;85.50;;;;;;6321149;28;20227;-62
2021/12/27 11:22:44;;;;;;;20.83;12.00;;;2.40;85.70;;;;;;6340402;28;20287;-62
2021/12/27 11:25:45;;;;;;;18.20;10.90;;;2.40;85.70;;;;;;6311533;28;20216;-62
2021/12/27 11:28:46;;;;;;;15.20;10.20;;;2.60;84.80;;;;;;6345704;28;20191;-62
2021/12/27 11:32:09;;;;;;;21.77;11.50;;;2.60;84.20;;;;;;6326502;28;20267;-62
2021/12/27 11:35:12;;;;;;;19.60;11.13;;;2.40;84.50;;;;;;6340001;28;20196;-62
2021/12/27 11:38:39;;;;;;;22.17;12.00;;;2.30;85.30;;;;;;6304347;28;20196;-62
2021/12/27 11:41:40;;;;;;;23.63;13.87;;;2.40;85.20;;;;;;6350678;28;20215;-62
2021/12/27 11:44:49;;;;;;;20.83;11.40;;;2.20;85.60;;;;;;6333383;28;20184;-62
2021/12/27 11:48:06;;;;;;;21.90;11.60;;;2.30;86.10;;;;;;6349522;28;20192;-62
2021/12/27 11:51:10;;;;;;;23.20;12.33;;;2.30;86.10;;;;;;6333960;28;20195;-62
2021/12/27 11:54:29;;;;;;;22.80;12.60;;;2.50;85.40;;;;;;6330357;28;20184;-62
2021/12/27 11:57:42;;;;;;;20.93;10.83;;;2.40;85.60;;;;;;6343431;28;20682;-62
2021/12/27 12:00:43;;;;;;;21.87;12.83;;;2.40;86.20;;;;;;6324158;28;20190;-62
2021/12/27 12:03:44;;;;;;;19.23;11.37;;;2.70;85.20;;;;;;6350130;27;20188;-62
2021/12/27 12:06:45;;;;;;;21.67;12.43;;;2.60;84.30;;;;;;6334254;28;20282;-62
2021/12/27 12:09:47;;;;;;;21.87;13.43;;;2.50;84.00;;;;;;6339310;28;20291;-62
2021/12/27 12:13:19;;;;;;;25.57;12.83;;;2.60;85.70;;;;;;6341450;28;20202;-62
2021/12/27 12:16:23;;;;;;;23.93;11.50;;;2.60;85.80;;;;;;6356040;27;20220;-62
2021/12/27 12:19:59;;;;;;;19.20;11.53;;;2.60;85.60;;;;;;6330510;28;20184;-62
2021/12/27 12:23:08;;;;;;;23.50;12.83;;;2.80;85.80;;;;;;6324001;28;20478;-62
2021/12/27 12:26:09;;;;;;;20.40;12.70;;;2.90;83.90;;;;;;6331105;28;20233;-62
2021/12/27 12:29:10;;;;;;;20.80;11.40;;;2.80;83.60;;;;;;6346408;28;20199;-62
2021/12/27 12:32:13;;;;;;;21.80;13.00;;;2.80;84.00;;;;;;6345158;28;20183;-62
2021/12/27 12:35:41;;;;;;;22.33;11.63;;;2.70;84.30;;;;;;6365461;27;20220;-62
2021/12/27 12:38:43;;;;;;;20.13;11.33;;;2.70;83.90;;;;;;6351097;28;20188;-62
2021/12/27 12:41:44;;;;;;;19.73;11.47;;;2.60;84.10;;;;;;6333583;28;20192;-62
2021/12/27 12:44:58;;;;;;;18.03;11.57;;;2.60;84.40;;;;;;6333183;28;20198;-62
2021/12/27 12:47:59;;;;;;;17.10;10.33;;;2.70;84.10;;;;;;6323393;28;20218;-62
2021/12/27 12:50:59;;;;;;;18.87;11.87;;;2.60;84.20;;;;;;6324560;28;20635;-62
2021/12/27 12:54:01;;;;;;;18.73;10.87;;;2.60;83.80;;;;;;6334874;28;20221;-62
2021/12/27 12:57:07;;;;;;;15.53;10.60;;;2.60;84.20;;;;;;6331909;28;20297;-62
2021/12/27 13:00:08;;;;;;;15.13;10.17;;;2.60;84.60;;;;;;6331237;28;20294;-62
2021/12/27 13:03:14;;;;;;;16.63;10.80;;;2.70;83.90;;;;;;6315388;28;20248;-62
2021/12/27 13:06:15;;;;;;;18.77;11.03;;;2.70;84.00;;;;;;6330536;28;20199;-62
2021/12/27 13:09:15;;;;;;;19.33;10.27;;;2.60;84.10;;;;;;6327053;28;20196;-62
2021/12/27 13:12:25;;;;;;;18.07;10.57;;;2.70;83.30;;;;;;6289358;28;20240;-62
2021/12/27 13:15:29;;;;;;;16.20;9.93;;;2.60;84.00;;;;;;6323939;28;20205;-62
2021/12/27 13:18:32;;;;;;;16.47;10.73;;;2.60;84.40;;;;;;6313929;28;20192;-62
2021/12/27 13:21:33;;;;;;;18.03;10.40;;;2.70;84.00;;;;;;6314452;28;20219;-62
2021/12/27 13:24:34;;;;;;;17.20;10.13;;;2.70;83.60;;;;;;6330682;28;20199;-62
2021/12/27 13:27:36;;;;;;;17.60;11.30;;;2.70;83.30;;;;;;6347590;28;20188;-62
2021/12/27 13:30:55;;;;;;;18.77;11.37;;;2.70;84.00;;;;;;6349511;27;20224;-62
2021/12/27 13:34:02;;;;;;;17.47;11.03;;;2.60;84.20;;;;;;6322940;28;20208;-62
2021/12/27 13:37:03;;;;;;;17.93;10.83;;;2.60;83.60;;;;;;6341412;28;20220;-62
2021/12/27 13:40:09;;;;;;;19.70;11.57;;;2.60;84.10;;;;;;6331104;28;20194;-62
2021/12/27 13:43:10;;;;;;;18.17;10.90;;;2.60;83.90;;;;;;6331195;28;20244;-62
2021/12/27 13:46:14;;;;;;;18.20;11.47;;;2.70;82.50;;;;;;6330858;28;20200;-62
2021/12/27 13:49:15;;;;;;;19.07;11.50;;;2.60;83.20;;;;;;6348645;28;20188;-62
2021/12/27 13:52:18;;;;;;;16.13;10.87;;;2.60;83.60;;;;;;6325338;28;20206;-62
2021/12/27 13:55:37;;;;;;;14.83;10.07;;;2.50;84.20;;;;;;6309495;28;20203;-62
2021/12/27 13:58:44;;;;;;;18.07;10.30;;;2.40;83.90;;;;;;6347695;28;20189;-62
2021/12/27 14:01:57;;;;;;;20.33;11.77;;;2.50;83.00;;;;;;6346701;28;20217;-62
2021/12/27 14:04:59;;;;;;;16.47;10.63;;;2.50;83.20;;;;;;6346727;28;20184;-62
2021/12/27 14:08:12;;;;;;;17.37;11.60;;;2.40;83.70;;;;;;6332008;28;20215;-62
2021/12/27 14:11:13;;;;;;;17.70;10.80;;;2.40;83.40;;;;;;6365589;27;20284;-62
2021/12/27 14:14:15;;;;;;;16.57;10.80;;;2.30;84.30;;;;;;6312796;28;20195;-62
2021/12/27 14:17:16;;;;;;;19.93;11.73;;;2.40;84.20;;;;;;6347588;28;20216;-62
2021/12/27 14:20:17;;;;;;;16.60;10.50;;;2.30;84.70;;;;;;6364072;27;20182;-62
2021/12/27 14:23:18;;;;;;;18.27;12.23;;;2.40;84.50;;;;;;6329591;28;20265;-62
2021/12/27 14:26:18;;;;;;;15.83;9.90;;;2.40;83.90;;;;;;6346403;28;20196;-62
2021/12/27 14:29:20;;;;;;;16.20;11.43;;;2.40;83.90;;;;;;6346619;28;20191;-62
2021/12/27 14:32:21;;;;;;;16.43;11.10;;;2.30;84.40;;;;;;6328602;28;20215;-62
2021/12/27 14:35:22;;;;;;;12.90;9.37;;;2.30;85.10;;;;;;6347929;27;20223;-62
2021/12/27 14:38:25;;;;;;;17.07;11.33;;;2.40;84.70;;;;;;6330238;28;20186;-62
2021/12/27 14:41:26;;;;;;;14.17;10.07;;;2.50;84.10;;;;;;6363938;27;20191;-62
2021/12/27 14:44:27;;;;;;;16.20;11.50;;;2.50;84.20;;;;;;6347125;28;20268;-62
2021/12/27 14:47:28;;;;;;;16.00;11.13;;;2.50;84.50;;;;;;6329912;28;20236;-62
2021/12/27 14:50:30;;;;;;;14.23;9.50;;;2.50;84.40;;;;;;6330232;28;20198;-62
2021/12/27 14:53:30;;;;;;;16.47;12.63;;;2.60;84.10;;;;;;6346873;28;20199;-62
2021/12/27 14:56:31;;;;;;;15.50;11.30;;;2.60;83.50;;;;;;6328778;28;20232;-62
2021/12/27 14:59:33;;;;;;;17.63;10.27;;;2.60;83.20;;;;;;6330021;28;20183;-62
2021/12/27 15:02:34;;;;;;;15.63;10.93;;;2.60;82.90;;;;;;6328512;28;20188;-62
2021/12/27 15:05:35;;;;;;;18.57;11.77;;;2.50;82.90;;;;;;6345541;28;20191;-62
2021/12/27 15:08:37;;;;;;;14.30;11.00;;;2.30;84.20;;;;;;6346565;28;20193;-62
2021/12/27 15:11:38;;;;;;;14.93;10.33;;;2.30;84.80;;;;;;6319950;28;20251;-62
2021/12/27 15:14:38;;;;;;;13.80;9.57;;;2.30;84.80;;;;;;6337305;28;20195;-62
2021/12/27 15:17:39;;;;;;;16.63;11.37;;;2.30;84.90;;;;;;6332523;28;20234;-62
2021/12/27 15:20:40;;;;;;;17.10;10.73;;;2.30;85.40;;;;;;6338765;28;20195;-62
2021/12/27 15:23:41;;;;;;;18.40;11.47;;;2.30;85.40;;;;;;6338969;28;20188;-62
2021/12/27 15:26:43;;;;;;;15.73;10.20;;;2.30;85.70;;;;;;6340326;28;20187;-62
2021/12/27 15:29:44;;;;;;;16.73;10.17;;;2.40;84.90;;;;;;6345572;28;20223;-62
2021/12/27 15:32:47;;;;;;;14.57;9.87;;;2.40;84.20;;;;;;6328306;28;20498;-62
2021/12/27 15:35:47;;;;;;;13.20;8.80;;;2.40;83.90;;;;;;6345739;28;20223;-62
2021/12/27 15:38:49;;;;;;;14.60;10.83;;;2.50;83.90;;;;;;6362440;27;20199;-62
2021/12/27 15:41:52;;;;;;;15.17;10.93;;;2.50;83.80;;;;;;6328169;28;20191;-62
2021/12/27 15:44:53;;;;;;;15.10;10.47;;;2.40;84.20;;;;;;6345856;28;20190;-62
2021/12/27 15:47:55;;;;;;;12.53;9.63;;;2.40;85.20;;;;;;6328764;28;20187;-62
2021/12/27 15:50:56;;;;;;;17.10;11.33;;;2.40;84.90;;;;;;6365053;27;20188;-62